sensor_id;sensor_type;location;lat;lon;timestamp;P1;durP1;ratioP1;P2;durP2;ratioP2
37303;SDS011;23188;51.188;16.374;2023-08-31T00:02:26;7.60;;;4.90;;
37303;SDS011;23188;51.188;16.374;2023-08-31T00:06:29;5.80;;;5.10;;
37303;SDS011;23188;51.188;16.374;2023-08-31T00:10:36;6.30;;;5.10;;
37303;SDS011;23188;51.188;16.374;2023-08-31T00:14:39;8.00;;;5.00;;
37303;SDS011;23188;51.188;16.374;2023-08-31T00:18:42;4.40;;;3.70;;
37303;SDS011;23188;51.188;16.374;2023-08-31T00:22:47;4.30;;;3.50;;
37303;SDS011;23188;51.188;16.374;2023-08-31T00:26:50;5.50;;;4.90;;
37303;SDS011;23188;51.188;16.374;2023-08-31T00:30:54;7.80;;;4.00;;
37303;SDS011;23188;51.188;16.374;2023-08-31T00:34:57;4.70;;;2.90;;
37303;SDS011;23188;51.188;16.374;2023-08-31T00:39:03;6.80;;;4.30;;
37303;SDS011;23188;51.188;16.374;2023-08-31T00:43:13;5.00;;;3.80;;
37303;SDS011;23188;51.188;16.374;2023-08-31T00:47:20;6.00;;;4.10;;
37303;SDS011;23188;51.188;16.374;2023-08-31T00:51:24;6.00;;;4.20;;
37303;SDS011;23188;51.188;16.374;2023-08-31T00:55:28;6.40;;;4.80;;
37303;SDS011;23188;51.188;16.374;2023-08-31T00:59:31;3.40;;;3.10;;
37303;SDS011;23188;51.188;16.374;2023-08-31T01:08:10;5.30;;;3.90;;
37303;SDS011;23188;51.188;16.374;2023-08-31T01:12:16;11.90;;;5.10;;
37303;SDS011;23188;51.188;16.374;2023-08-31T01:16:25;3.60;;;3.20;;
37303;SDS011;23188;51.188;16.374;2023-08-31T01:20:58;5.70;;;3.50;;
37303;SDS011;23188;51.188;16.374;2023-08-31T01:25:04;4.40;;;3.70;;
37303;SDS011;23188;51.188;16.374;2023-08-31T01:29:08;4.60;;;3.40;;
37303;SDS011;23188;51.188;16.374;2023-08-31T01:33:12;4.00;;;3.60;;
37303;SDS011;23188;51.188;16.374;2023-08-31T01:37:17;5.90;;;3.90;;
37303;SDS011;23188;51.188;16.374;2023-08-31T01:41:30;6.20;;;3.60;;
37303;SDS011;23188;51.188;16.374;2023-08-31T01:45:38;14.30;;;5.00;;
37303;SDS011;23188;51.188;16.374;2023-08-31T01:49:42;4.40;;;3.60;;
37303;SDS011;23188;51.188;16.374;2023-08-31T01:53:46;5.20;;;4.00;;
37303;SDS011;23188;51.188;16.374;2023-08-31T01:57:49;6.50;;;4.00;;
37303;SDS011;23188;51.188;16.374;2023-08-31T02:01:52;4.70;;;4.30;;
37303;SDS011;23188;51.188;16.374;2023-08-31T02:05:55;6.10;;;3.70;;
37303;SDS011;23188;51.188;16.374;2023-08-31T02:09:59;5.40;;;4.70;;
37303;SDS011;23188;51.188;16.374;2023-08-31T02:14:02;8.90;;;4.70;;
37303;SDS011;23188;51.188;16.374;2023-08-31T02:18:07;6.60;;;4.40;;
37303;SDS011;23188;51.188;16.374;2023-08-31T02:22:10;7.60;;;5.70;;
37303;SDS011;23188;51.188;16.374;2023-08-31T02:26:14;5.80;;;5.00;;
37303;SDS011;23188;51.188;16.374;2023-08-31T02:30:17;11.70;;;5.70;;
37303;SDS011;23188;51.188;16.374;2023-08-31T02:34:20;5.80;;;5.20;;
37303;SDS011;23188;51.188;16.374;2023-08-31T02:38:23;6.70;;;4.40;;
37303;SDS011;23188;51.188;16.374;2023-08-31T02:42:26;5.90;;;4.90;;
37303;SDS011;23188;51.188;16.374;2023-08-31T02:46:30;6.20;;;5.60;;
37303;SDS011;23188;51.188;16.374;2023-08-31T02:50:34;8.30;;;6.60;;
37303;SDS011;23188;51.188;16.374;2023-08-31T02:54:37;7.60;;;5.70;;
37303;SDS011;23188;51.188;16.374;2023-08-31T02:58:41;13.30;;;6.70;;
37303;SDS011;23188;51.188;16.374;2023-08-31T03:02:44;7.60;;;6.90;;
37303;SDS011;23188;51.188;16.374;2023-08-31T03:06:48;8.40;;;6.40;;
37303;SDS011;23188;51.188;16.374;2023-08-31T03:10:51;6.50;;;5.30;;
37303;SDS011;23188;51.188;16.374;2023-08-31T03:14:55;8.60;;;4.80;;
37303;SDS011;23188;51.188;16.374;2023-08-31T03:19:00;5.60;;;5.10;;
37303;SDS011;23188;51.188;16.374;2023-08-31T03:23:03;7.20;;;5.40;;
37303;SDS011;23188;51.188;16.374;2023-08-31T03:27:06;4.90;;;4.00;;
37303;SDS011;23188;51.188;16.374;2023-08-31T03:31:10;6.80;;;6.00;;
37303;SDS011;23188;51.188;16.374;2023-08-31T03:35:13;5.00;;;4.60;;
37303;SDS011;23188;51.188;16.374;2023-08-31T03:39:17;6.00;;;5.40;;
37303;SDS011;23188;51.188;16.374;2023-08-31T03:43:20;6.10;;;4.60;;
37303;SDS011;23188;51.188;16.374;2023-08-31T03:47:23;6.90;;;6.20;;
37303;SDS011;23188;51.188;16.374;2023-08-31T03:51:26;6.40;;;4.90;;
37303;SDS011;23188;51.188;16.374;2023-08-31T03:55:29;6.50;;;5.60;;
37303;SDS011;23188;51.188;16.374;2023-08-31T03:59:32;7.40;;;6.60;;
37303;SDS011;23188;51.188;16.374;2023-08-31T04:03:36;5.20;;;4.70;;
37303;SDS011;23188;51.188;16.374;2023-08-31T04:07:39;6.00;;;5.30;;
37303;SDS011;23188;51.188;16.374;2023-08-31T04:11:42;7.10;;;5.70;;
37303;SDS011;23188;51.188;16.374;2023-08-31T04:15:45;4.70;;;4.20;;
37303;SDS011;23188;51.188;16.374;2023-08-31T04:19:49;6.40;;;4.70;;
37303;SDS011;23188;51.188;16.374;2023-08-31T04:23:54;6.60;;;5.40;;
37303;SDS011;23188;51.188;16.374;2023-08-31T04:27:57;5.10;;;4.60;;
37303;SDS011;23188;51.188;16.374;2023-08-31T04:32:00;5.70;;;5.20;;
37303;SDS011;23188;51.188;16.374;2023-08-31T04:36:03;7.60;;;5.70;;
37303;SDS011;23188;51.188;16.374;2023-08-31T04:40:07;5.40;;;4.90;;
37303;SDS011;23188;51.188;16.374;2023-08-31T04:44:11;5.60;;;5.10;;
37303;SDS011;23188;51.188;16.374;2023-08-31T04:48:14;8.20;;;5.60;;
37303;SDS011;23188;51.188;16.374;2023-08-31T04:52:18;5.00;;;4.50;;
37303;SDS011;23188;51.188;16.374;2023-08-31T04:56:21;4.90;;;4.30;;
37303;SDS011;23188;51.188;16.374;2023-08-31T05:00:24;5.70;;;5.20;;
37303;SDS011;23188;51.188;16.374;2023-08-31T05:04:27;6.00;;;5.20;;
37303;SDS011;23188;51.188;16.374;2023-08-31T05:08:31;7.40;;;5.00;;
37303;SDS011;23188;51.188;16.374;2023-08-31T05:12:35;6.00;;;5.40;;
37303;SDS011;23188;51.188;16.374;2023-08-31T05:16:38;5.60;;;5.00;;
37303;SDS011;23188;51.188;16.374;2023-08-31T05:20:45;6.20;;;5.20;;
37303;SDS011;23188;51.188;16.374;2023-08-31T05:24:49;6.10;;;5.50;;
37303;SDS011;23188;51.188;16.374;2023-08-31T05:28:52;5.10;;;4.60;;
37303;SDS011;23188;51.188;16.374;2023-08-31T05:32:56;6.50;;;5.90;;
37303;SDS011;23188;51.188;16.374;2023-08-31T05:36:59;7.20;;;6.50;;
37303;SDS011;23188;51.188;16.374;2023-08-31T05:41:06;5.60;;;5.00;;
37303;SDS011;23188;51.188;16.374;2023-08-31T05:45:10;10.20;;;6.80;;
37303;SDS011;23188;51.188;16.374;2023-08-31T05:49:14;9.40;;;5.60;;
37303;SDS011;23188;51.188;16.374;2023-08-31T05:53:17;6.80;;;4.20;;
37303;SDS011;23188;51.188;16.374;2023-08-31T05:57:21;4.00;;;3.60;;
37303;SDS011;23188;51.188;16.374;2023-08-31T06:01:25;4.60;;;4.10;;
37303;SDS011;23188;51.188;16.374;2023-08-31T06:05:28;5.70;;;3.60;;
37303;SDS011;23188;51.188;16.374;2023-08-31T06:09:33;4.80;;;3.80;;
37303;SDS011;23188;51.188;16.374;2023-08-31T06:13:37;6.20;;;4.30;;
37303;SDS011;23188;51.188;16.374;2023-08-31T06:17:40;5.00;;;4.60;;
37303;SDS011;23188;51.188;16.374;2023-08-31T06:21:44;4.40;;;3.90;;
37303;SDS011;23188;51.188;16.374;2023-08-31T06:25:47;5.10;;;4.10;;
37303;SDS011;23188;51.188;16.374;2023-08-31T06:29:50;5.80;;;4.30;;
37303;SDS011;23188;51.188;16.374;2023-08-31T06:33:53;5.30;;;4.80;;
37303;SDS011;23188;51.188;16.374;2023-08-31T06:37:56;6.20;;;4.40;;
37303;SDS011;23188;51.188;16.374;2023-08-31T06:42:00;8.60;;;5.50;;
37303;SDS011;23188;51.188;16.374;2023-08-31T06:46:03;4.30;;;3.90;;
37303;SDS011;23188;51.188;16.374;2023-08-31T06:50:26;4.90;;;4.40;;
37303;SDS011;23188;51.188;16.374;2023-08-31T06:54:29;8.20;;;4.40;;
37303;SDS011;23188;51.188;16.374;2023-08-31T06:58:32;6.70;;;5.00;;
37303;SDS011;23188;51.188;16.374;2023-08-31T07:02:36;6.00;;;5.40;;
37303;SDS011;23188;51.188;16.374;2023-08-31T07:06:42;10.30;;;7.90;;
37303;SDS011;23188;51.188;16.374;2023-08-31T07:10:45;6.10;;;5.40;;
37303;SDS011;23188;51.188;16.374;2023-08-31T07:14:50;6.20;;;4.40;;
37303;SDS011;23188;51.188;16.374;2023-08-31T07:18:53;7.10;;;5.80;;
37303;SDS011;23188;51.188;16.374;2023-08-31T07:22:57;5.60;;;4.10;;
37303;SDS011;23188;51.188;16.374;2023-08-31T07:27:01;5.90;;;5.30;;
37303;SDS011;23188;51.188;16.374;2023-08-31T07:31:07;3.80;;;2.10;;
37303;SDS011;23188;51.188;16.374;2023-08-31T07:35:10;4.00;;;2.70;;
37303;SDS011;23188;51.188;16.374;2023-08-31T07:39:13;2.80;;;1.70;;
37303;SDS011;23188;51.188;16.374;2023-08-31T07:43:16;1.70;;;1.60;;
37303;SDS011;23188;51.188;16.374;2023-08-31T07:47:20;2.10;;;1.90;;
37303;SDS011;23188;51.188;16.374;2023-08-31T07:51:23;3.60;;;2.30;;
37303;SDS011;23188;51.188;16.374;2023-08-31T07:55:27;17.40;;;2.50;;
37303;SDS011;23188;51.188;16.374;2023-08-31T07:59:30;4.20;;;1.90;;
37303;SDS011;23188;51.188;16.374;2023-08-31T08:03:33;2.40;;;2.10;;
37303;SDS011;23188;51.188;16.374;2023-08-31T08:07:36;3.10;;;2.60;;
37303;SDS011;23188;51.188;16.374;2023-08-31T08:11:39;3.60;;;2.50;;
37303;SDS011;23188;51.188;16.374;2023-08-31T08:15:43;2.90;;;2.40;;
37303;SDS011;23188;51.188;16.374;2023-08-31T08:19:48;4.10;;;2.70;;
37303;SDS011;23188;51.188;16.374;2023-08-31T08:23:51;3.50;;;2.80;;
37303;SDS011;23188;51.188;16.374;2023-08-31T08:27:54;2.50;;;2.30;;
37303;SDS011;23188;51.188;16.374;2023-08-31T08:31:58;3.80;;;3.10;;
37303;SDS011;23188;51.188;16.374;2023-08-31T08:36:01;3.50;;;2.50;;
37303;SDS011;23188;51.188;16.374;2023-08-31T08:40:04;2.40;;;2.10;;
37303;SDS011;23188;51.188;16.374;2023-08-31T08:44:08;4.30;;;3.60;;
37303;SDS011;23188;51.188;16.374;2023-08-31T08:48:12;24.10;;;4.80;;
37303;SDS011;23188;51.188;16.374;2023-08-31T08:52:17;4.60;;;3.80;;
37303;SDS011;23188;51.188;16.374;2023-08-31T08:56:21;6.70;;;4.60;;
37303;SDS011;23188;51.188;16.374;2023-08-31T09:00:24;5.70;;;5.00;;
37303;SDS011;23188;51.188;16.374;2023-08-31T09:04:29;4.00;;;3.70;;
37303;SDS011;23188;51.188;16.374;2023-08-31T09:08:33;7.30;;;5.30;;
37303;SDS011;23188;51.188;16.374;2023-08-31T09:12:36;6.00;;;5.50;;
37303;SDS011;23188;51.188;16.374;2023-08-31T09:16:48;6.80;;;6.10;;
37303;SDS011;23188;51.188;16.374;2023-08-31T09:20:53;6.30;;;5.50;;
37303;SDS011;23188;51.188;16.374;2023-08-31T09:29:03;4.90;;;3.60;;
37303;SDS011;23188;51.188;16.374;2023-08-31T09:33:10;5.40;;;3.80;;
37303;SDS011;23188;51.188;16.374;2023-08-31T09:37:17;3.80;;;3.00;;
37303;SDS011;23188;51.188;16.374;2023-08-31T09:41:20;5.00;;;3.90;;
37303;SDS011;23188;51.188;16.374;2023-08-31T09:45:30;4.60;;;2.40;;
37303;SDS011;23188;51.188;16.374;2023-08-31T09:49:47;4.00;;;2.60;;
37303;SDS011;23188;51.188;16.374;2023-08-31T09:53:51;6.20;;;3.40;;
37303;SDS011;23188;51.188;16.374;2023-08-31T09:58:00;3.60;;;3.30;;
37303;SDS011;23188;51.188;16.374;2023-08-31T10:02:17;4.30;;;2.70;;
37303;SDS011;23188;51.188;16.374;2023-08-31T10:06:21;3.00;;;2.60;;
37303;SDS011;23188;51.188;16.374;2023-08-31T10:10:26;3.50;;;3.10;;
37303;SDS011;23188;51.188;16.374;2023-08-31T10:14:31;3.20;;;2.90;;
37303;SDS011;23188;51.188;16.374;2023-08-31T10:18:35;4.50;;;2.60;;
37303;SDS011;23188;51.188;16.374;2023-08-31T10:22:39;5.10;;;2.90;;
37303;SDS011;23188;51.188;16.374;2023-08-31T10:26:42;3.60;;;3.30;;
37303;SDS011;23188;51.188;16.374;2023-08-31T10:35:08;4.90;;;3.90;;
37303;SDS011;23188;51.188;16.374;2023-08-31T10:39:12;4.80;;;3.10;;
37303;SDS011;23188;51.188;16.374;2023-08-31T10:43:18;5.30;;;3.30;;
37303;SDS011;23188;51.188;16.374;2023-08-31T10:47:22;5.10;;;4.50;;
37303;SDS011;23188;51.188;16.374;2023-08-31T11:01:06;5.10;;;3.40;;
37303;SDS011;23188;51.188;16.374;2023-08-31T11:05:10;2.50;;;2.00;;
37303;SDS011;23188;51.188;16.374;2023-08-31T11:09:19;2.70;;;1.70;;
37303;SDS011;23188;51.188;16.374;2023-08-31T11:13:23;2.80;;;1.70;;
37303;SDS011;23188;51.188;16.374;2023-08-31T11:17:26;1.20;;;1.10;;
37303;SDS011;23188;51.188;16.374;2023-08-31T11:21:32;3.60;;;1.70;;
37303;SDS011;23188;51.188;16.374;2023-08-31T11:25:35;3.90;;;2.00;;
37303;SDS011;23188;51.188;16.374;2023-08-31T11:29:45;5.60;;;2.10;;
37303;SDS011;23188;51.188;16.374;2023-08-31T11:33:48;2.60;;;2.30;;
37303;SDS011;23188;51.188;16.374;2023-08-31T11:37:51;2.30;;;1.90;;
37303;SDS011;23188;51.188;16.374;2023-08-31T11:41:58;2.70;;;2.10;;
37303;SDS011;23188;51.188;16.374;2023-08-31T11:46:02;9.00;;;2.10;;
37303;SDS011;23188;51.188;16.374;2023-08-31T11:50:07;2.90;;;1.80;;
37303;SDS011;23188;51.188;16.374;2023-08-31T11:54:11;2.30;;;2.10;;
37303;SDS011;23188;51.188;16.374;2023-08-31T11:58:14;3.40;;;3.10;;
37303;SDS011;23188;51.188;16.374;2023-08-31T12:02:19;3.80;;;2.40;;
37303;SDS011;23188;51.188;16.374;2023-08-31T12:06:22;2.00;;;1.70;;
37303;SDS011;23188;51.188;16.374;2023-08-31T12:10:25;3.10;;;2.20;;
37303;SDS011;23188;51.188;16.374;2023-08-31T12:14:29;2.50;;;1.70;;
37303;SDS011;23188;51.188;16.374;2023-08-31T12:18:37;3.30;;;2.00;;
37303;SDS011;23188;51.188;16.374;2023-08-31T12:22:40;6.60;;;2.20;;
37303;SDS011;23188;51.188;16.374;2023-08-31T12:26:43;3.20;;;1.80;;
37303;SDS011;23188;51.188;16.374;2023-08-31T12:30:55;3.30;;;2.20;;
37303;SDS011;23188;51.188;16.374;2023-08-31T12:35:01;3.00;;;1.40;;
37303;SDS011;23188;51.188;16.374;2023-08-31T12:39:07;3.50;;;1.60;;
37303;SDS011;23188;51.188;16.374;2023-08-31T12:43:12;2.90;;;2.10;;
37303;SDS011;23188;51.188;16.374;2023-08-31T12:47:15;2.50;;;1.60;;
37303;SDS011;23188;51.188;16.374;2023-08-31T12:51:18;4.70;;;2.20;;
37303;SDS011;23188;51.188;16.374;2023-08-31T12:55:22;2.10;;;1.40;;
37303;SDS011;23188;51.188;16.374;2023-08-31T12:59:25;19.60;;;3.40;;
37303;SDS011;23188;51.188;16.374;2023-08-31T13:03:28;2.50;;;2.30;;
37303;SDS011;23188;51.188;16.374;2023-08-31T13:07:32;4.00;;;2.30;;
37303;SDS011;23188;51.188;16.374;2023-08-31T13:11:35;2.00;;;1.80;;
37303;SDS011;23188;51.188;16.374;2023-08-31T13:15:38;4.00;;;2.80;;
37303;SDS011;23188;51.188;16.374;2023-08-31T13:19:41;4.40;;;1.50;;
37303;SDS011;23188;51.188;16.374;2023-08-31T13:23:44;2.50;;;1.40;;
37303;SDS011;23188;51.188;16.374;2023-08-31T13:27:48;2.20;;;2.00;;
37303;SDS011;23188;51.188;16.374;2023-08-31T13:31:51;3.80;;;2.10;;
37303;SDS011;23188;51.188;16.374;2023-08-31T13:35:56;2.80;;;1.40;;
37303;SDS011;23188;51.188;16.374;2023-08-31T13:40:01;2.80;;;1.20;;
37303;SDS011;23188;51.188;16.374;2023-08-31T13:44:07;2.10;;;1.60;;
37303;SDS011;23188;51.188;16.374;2023-08-31T13:48:10;4.10;;;1.40;;
37303;SDS011;23188;51.188;16.374;2023-08-31T13:52:14;1.20;;;1.10;;
37303;SDS011;23188;51.188;16.374;2023-08-31T13:56:17;3.40;;;1.90;;
37303;SDS011;23188;51.188;16.374;2023-08-31T14:00:20;2.00;;;1.30;;
37303;SDS011;23188;51.188;16.374;2023-08-31T14:04:23;4.10;;;1.50;;
37303;SDS011;23188;51.188;16.374;2023-08-31T14:08:26;2.30;;;1.70;;
37303;SDS011;23188;51.188;16.374;2023-08-31T14:12:29;2.70;;;1.90;;
37303;SDS011;23188;51.188;16.374;2023-08-31T14:16:32;2.60;;;1.20;;
37303;SDS011;23188;51.188;16.374;2023-08-31T14:20:36;2.30;;;1.60;;
37303;SDS011;23188;51.188;16.374;2023-08-31T14:24:40;3.50;;;1.00;;
37303;SDS011;23188;51.188;16.374;2023-08-31T14:28:43;2.10;;;1.40;;
37303;SDS011;23188;51.188;16.374;2023-08-31T14:32:48;2.40;;;1.40;;
37303;SDS011;23188;51.188;16.374;2023-08-31T14:36:51;2.30;;;1.50;;
37303;SDS011;23188;51.188;16.374;2023-08-31T14:40:55;1.10;;;1.10;;
37303;SDS011;23188;51.188;16.374;2023-08-31T14:44:58;2.70;;;1.80;;
37303;SDS011;23188;51.188;16.374;2023-08-31T14:49:01;1.60;;;0.80;;
37303;SDS011;23188;51.188;16.374;2023-08-31T14:53:04;1.50;;;1.00;;
37303;SDS011;23188;51.188;16.374;2023-08-31T14:57:07;1.90;;;1.30;;
37303;SDS011;23188;51.188;16.374;2023-08-31T15:01:10;5.30;;;1.10;;
37303;SDS011;23188;51.188;16.374;2023-08-31T15:05:14;1.70;;;0.70;;
37303;SDS011;23188;51.188;16.374;2023-08-31T15:09:18;2.30;;;1.10;;
37303;SDS011;23188;51.188;16.374;2023-08-31T15:13:21;5.90;;;1.20;;
37303;SDS011;23188;51.188;16.374;2023-08-31T15:17:24;5.30;;;1.50;;
37303;SDS011;23188;51.188;16.374;2023-08-31T15:21:27;1.90;;;0.60;;
37303;SDS011;23188;51.188;16.374;2023-08-31T15:25:30;1.90;;;0.80;;
37303;SDS011;23188;51.188;16.374;2023-08-31T15:29:33;1.50;;;0.90;;
37303;SDS011;23188;51.188;16.374;2023-08-31T15:33:36;0.70;;;0.50;;
37303;SDS011;23188;51.188;16.374;2023-08-31T15:37:39;1.60;;;0.90;;
37303;SDS011;23188;51.188;16.374;2023-08-31T15:41:42;0.70;;;0.50;;
37303;SDS011;23188;51.188;16.374;2023-08-31T15:45:46;2.90;;;1.20;;
37303;SDS011;23188;51.188;16.374;2023-08-31T15:49:50;1.50;;;0.90;;
37303;SDS011;23188;51.188;16.374;2023-08-31T15:53:54;1.50;;;0.80;;
37303;SDS011;23188;51.188;16.374;2023-08-31T15:57:57;3.20;;;1.90;;
37303;SDS011;23188;51.188;16.374;2023-08-31T16:02:00;1.20;;;0.90;;
37303;SDS011;23188;51.188;16.374;2023-08-31T16:06:06;1.90;;;1.10;;
37303;SDS011;23188;51.188;16.374;2023-08-31T16:10:15;2.50;;;1.90;;
37303;SDS011;23188;51.188;16.374;2023-08-31T16:14:19;5.00;;;1.40;;
37303;SDS011;23188;51.188;16.374;2023-08-31T16:18:22;4.20;;;1.60;;
37303;SDS011;23188;51.188;16.374;2023-08-31T16:22:25;2.80;;;1.50;;
37303;SDS011;23188;51.188;16.374;2023-08-31T16:26:28;4.00;;;1.10;;
37303;SDS011;23188;51.188;16.374;2023-08-31T16:30:31;3.20;;;1.70;;
37303;SDS011;23188;51.188;16.374;2023-08-31T16:34:35;12.60;;;1.50;;
37303;SDS011;23188;51.188;16.374;2023-08-31T16:38:38;2.00;;;1.30;;
37303;SDS011;23188;51.188;16.374;2023-08-31T16:42:42;1.30;;;1.20;;
37303;SDS011;23188;51.188;16.374;2023-08-31T16:46:45;3.90;;;1.60;;
37303;SDS011;23188;51.188;16.374;2023-08-31T16:50:48;1.30;;;1.00;;
37303;SDS011;23188;51.188;16.374;2023-08-31T16:54:51;1.10;;;1.00;;
37303;SDS011;23188;51.188;16.374;2023-08-31T16:58:54;1.70;;;1.00;;
37303;SDS011;23188;51.188;16.374;2023-08-31T17:03:02;5.00;;;1.40;;
37303;SDS011;23188;51.188;16.374;2023-08-31T17:07:07;4.10;;;1.60;;
37303;SDS011;23188;51.188;16.374;2023-08-31T17:11:10;3.50;;;1.00;;
37303;SDS011;23188;51.188;16.374;2023-08-31T17:15:14;3.90;;;1.60;;
37303;SDS011;23188;51.188;16.374;2023-08-31T17:19:17;1.60;;;1.40;;
37303;SDS011;23188;51.188;16.374;2023-08-31T17:23:21;1.60;;;1.20;;
37303;SDS011;23188;51.188;16.374;2023-08-31T17:27:24;2.20;;;0.60;;
37303;SDS011;23188;51.188;16.374;2023-08-31T17:31:28;2.90;;;1.50;;
37303;SDS011;23188;51.188;16.374;2023-08-31T17:35:31;3.60;;;2.20;;
37303;SDS011;23188;51.188;16.374;2023-08-31T17:39:35;4.50;;;2.40;;
37303;SDS011;23188;51.188;16.374;2023-08-31T17:43:38;3.30;;;2.10;;
37303;SDS011;23188;51.188;16.374;2023-08-31T17:47:41;3.80;;;1.40;;
37303;SDS011;23188;51.188;16.374;2023-08-31T17:51:45;2.80;;;2.00;;
37303;SDS011;23188;51.188;16.374;2023-08-31T17:55:48;1.90;;;1.20;;
37303;SDS011;23188;51.188;16.374;2023-08-31T17:59:52;1.30;;;0.80;;
37303;SDS011;23188;51.188;16.374;2023-08-31T18:03:55;2.40;;;1.30;;
37303;SDS011;23188;51.188;16.374;2023-08-31T18:07:59;2.50;;;1.00;;
37303;SDS011;23188;51.188;16.374;2023-08-31T18:12:06;3.10;;;1.00;;
37303;SDS011;23188;51.188;16.374;2023-08-31T18:16:10;2.10;;;1.30;;
37303;SDS011;23188;51.188;16.374;2023-08-31T18:20:14;3.10;;;1.00;;
37303;SDS011;23188;51.188;16.374;2023-08-31T18:24:20;1.90;;;0.70;;
37303;SDS011;23188;51.188;16.374;2023-08-31T18:28:23;1.70;;;1.40;;
37303;SDS011;23188;51.188;16.374;2023-08-31T18:32:27;2.40;;;1.10;;
37303;SDS011;23188;51.188;16.374;2023-08-31T18:36:30;2.00;;;1.00;;
37303;SDS011;23188;51.188;16.374;2023-08-31T18:40:34;1.70;;;1.10;;
37303;SDS011;23188;51.188;16.374;2023-08-31T18:44:38;1.30;;;1.10;;
37303;SDS011;23188;51.188;16.374;2023-08-31T18:48:42;1.40;;;0.90;;
37303;SDS011;23188;51.188;16.374;2023-08-31T18:52:45;1.80;;;0.70;;
37303;SDS011;23188;51.188;16.374;2023-08-31T18:56:49;2.90;;;1.50;;
37303;SDS011;23188;51.188;16.374;2023-08-31T19:00:52;1.30;;;0.70;;
37303;SDS011;23188;51.188;16.374;2023-08-31T19:04:56;3.20;;;1.50;;
37303;SDS011;23188;51.188;16.374;2023-08-31T19:09:00;2.40;;;1.70;;
37303;SDS011;23188;51.188;16.374;2023-08-31T19:13:06;2.10;;;1.60;;
37303;SDS011;23188;51.188;16.374;2023-08-31T19:17:10;3.30;;;1.50;;
37303;SDS011;23188;51.188;16.374;2023-08-31T19:21:13;1.10;;;1.00;;
37303;SDS011;23188;51.188;16.374;2023-08-31T19:25:22;2.20;;;1.70;;
37303;SDS011;23188;51.188;16.374;2023-08-31T19:29:32;2.20;;;1.60;;
37303;SDS011;23188;51.188;16.374;2023-08-31T19:33:35;3.00;;;1.80;;
37303;SDS011;23188;51.188;16.374;2023-08-31T19:37:38;2.80;;;1.50;;
37303;SDS011;23188;51.188;16.374;2023-08-31T19:41:42;4.30;;;2.10;;
37303;SDS011;23188;51.188;16.374;2023-08-31T19:45:45;3.80;;;2.40;;
37303;SDS011;23188;51.188;16.374;2023-08-31T19:49:49;5.30;;;2.20;;
37303;SDS011;23188;51.188;16.374;2023-08-31T19:53:55;2.70;;;1.80;;
37303;SDS011;23188;51.188;16.374;2023-08-31T19:57:58;2.10;;;1.40;;
37303;SDS011;23188;51.188;16.374;2023-08-31T20:02:01;4.40;;;2.10;;
37303;SDS011;23188;51.188;16.374;2023-08-31T20:06:07;5.40;;;2.20;;
37303;SDS011;23188;51.188;16.374;2023-08-31T20:10:10;2.90;;;1.80;;
37303;SDS011;23188;51.188;16.374;2023-08-31T20:14:14;7.40;;;2.10;;
37303;SDS011;23188;51.188;16.374;2023-08-31T20:18:17;3.80;;;1.90;;
37303;SDS011;23188;51.188;16.374;2023-08-31T20:22:20;1.90;;;1.60;;
37303;SDS011;23188;51.188;16.374;2023-08-31T20:26:23;22.90;;;2.30;;
37303;SDS011;23188;51.188;16.374;2023-08-31T20:30:26;3.00;;;1.60;;
37303;SDS011;23188;51.188;16.374;2023-08-31T20:34:30;4.40;;;1.50;;
37303;SDS011;23188;51.188;16.374;2023-08-31T20:38:34;2.40;;;1.20;;
37303;SDS011;23188;51.188;16.374;2023-08-31T20:42:41;5.10;;;2.00;;
37303;SDS011;23188;51.188;16.374;2023-08-31T20:46:45;2.00;;;1.30;;
37303;SDS011;23188;51.188;16.374;2023-08-31T20:50:49;2.80;;;1.80;;
37303;SDS011;23188;51.188;16.374;2023-08-31T20:55:03;2.10;;;1.40;;
37303;SDS011;23188;51.188;16.374;2023-08-31T20:59:09;3.10;;;1.60;;
37303;SDS011;23188;51.188;16.374;2023-08-31T21:03:14;1.90;;;1.80;;
37303;SDS011;23188;51.188;16.374;2023-08-31T21:07:17;4.10;;;1.50;;
37303;SDS011;23188;51.188;16.374;2023-08-31T21:11:23;3.70;;;1.70;;
37303;SDS011;23188;51.188;16.374;2023-08-31T21:15:26;1.20;;;1.10;;
37303;SDS011;23188;51.188;16.374;2023-08-31T21:19:29;1.90;;;1.40;;
37303;SDS011;23188;51.188;16.374;2023-08-31T21:23:33;4.50;;;1.80;;
37303;SDS011;23188;51.188;16.374;2023-08-31T21:27:36;2.70;;;1.80;;
37303;SDS011;23188;51.188;16.374;2023-08-31T21:31:39;4.50;;;1.30;;
37303;SDS011;23188;51.188;16.374;2023-08-31T21:35:42;7.20;;;0.90;;
37303;SDS011;23188;51.188;16.374;2023-08-31T21:39:46;4.10;;;1.20;;
37303;SDS011;23188;51.188;16.374;2023-08-31T21:43:49;1.50;;;1.00;;
37303;SDS011;23188;51.188;16.374;2023-08-31T21:47:52;2.80;;;1.30;;
37303;SDS011;23188;51.188;16.374;2023-08-31T21:51:55;6.20;;;2.20;;
37303;SDS011;23188;51.188;16.374;2023-08-31T21:56:02;2.10;;;1.60;;
37303;SDS011;23188;51.188;16.374;2023-08-31T22:00:07;1.60;;;0.90;;
37303;SDS011;23188;51.188;16.374;2023-08-31T22:04:15;4.10;;;1.80;;
37303;SDS011;23188;51.188;16.374;2023-08-31T22:08:20;2.20;;;1.60;;
37303;SDS011;23188;51.188;16.374;2023-08-31T22:12:23;2.30;;;1.80;;
37303;SDS011;23188;51.188;16.374;2023-08-31T22:16:26;4.10;;;1.70;;
37303;SDS011;23188;51.188;16.374;2023-08-31T22:20:32;1.90;;;1.30;;
37303;SDS011;23188;51.188;16.374;2023-08-31T22:24:35;2.30;;;2.10;;
37303;SDS011;23188;51.188;16.374;2023-08-31T22:28:38;4.40;;;2.00;;
37303;SDS011;23188;51.188;16.374;2023-08-31T22:32:41;2.60;;;1.50;;
37303;SDS011;23188;51.188;16.374;2023-08-31T22:36:45;3.10;;;1.40;;
37303;SDS011;23188;51.188;16.374;2023-08-31T22:40:48;3.10;;;1.00;;
37303;SDS011;23188;51.188;16.374;2023-08-31T22:44:51;1.20;;;1.10;;
37303;SDS011;23188;51.188;16.374;2023-08-31T22:48:54;1.30;;;1.10;;
37303;SDS011;23188;51.188;16.374;2023-08-31T22:52:57;6.10;;;2.40;;
37303;SDS011;23188;51.188;16.374;2023-08-31T22:57:00;2.60;;;2.20;;
37303;SDS011;23188;51.188;16.374;2023-08-31T23:01:03;2.70;;;1.90;;
37303;SDS011;23188;51.188;16.374;2023-08-31T23:05:06;3.70;;;2.40;;
37303;SDS011;23188;51.188;16.374;2023-08-31T23:09:10;2.70;;;1.60;;
37303;SDS011;23188;51.188;16.374;2023-08-31T23:13:13;2.70;;;1.90;;
37303;SDS011;23188;51.188;16.374;2023-08-31T23:17:16;2.30;;;1.20;;
37303;SDS011;23188;51.188;16.374;2023-08-31T23:21:19;2.10;;;1.40;;
37303;SDS011;23188;51.188;16.374;2023-08-31T23:25:31;3.20;;;2.10;;
37303;SDS011;23188;51.188;16.374;2023-08-31T23:29:35;2.40;;;2.00;;
37303;SDS011;23188;51.188;16.374;2023-08-31T23:33:38;3.10;;;1.20;;
37303;SDS011;23188;51.188;16.374;2023-08-31T23:37:41;2.80;;;1.60;;
37303;SDS011;23188;51.188;16.374;2023-08-31T23:41:44;2.80;;;1.80;;
37303;SDS011;23188;51.188;16.374;2023-08-31T23:45:47;4.60;;;1.90;;
37303;SDS011;23188;51.188;16.374;2023-08-31T23:49:50;2.50;;;1.30;;
37303;SDS011;23188;51.188;16.374;2023-08-31T23:53:54;5.00;;;2.30;;
37303;SDS011;23188;51.188;16.374;2023-08-31T23:57:58;2.50;;;1.80;;
